sensor_id;sensor_type;location;lat;lon;timestamp;P1;durP1;ratioP1;P2;durP2;ratioP2
63714;SDS011;49858;48.956;9.076;2023-09-30T00:01:49;4.38;;;1.95;;
63714;SDS011;49858;48.956;9.076;2023-09-30T00:04:19;3.85;;;2.33;;
63714;SDS011;49858;48.956;9.076;2023-09-30T00:06:47;5.13;;;1.45;;
63714;SDS011;49858;48.956;9.076;2023-09-30T00:09:15;3.42;;;2.20;;
63714;SDS011;49858;48.956;9.076;2023-09-30T00:11:43;4.03;;;1.52;;
63714;SDS011;49858;48.956;9.076;2023-09-30T00:14:11;4.10;;;1.92;;
63714;SDS011;49858;48.956;9.076;2023-09-30T00:16:39;5.13;;;1.25;;
63714;SDS011;49858;48.956;9.076;2023-09-30T00:19:07;4.82;;;1.75;;
63714;SDS011;49858;48.956;9.076;2023-09-30T00:21:38;4.40;;;1.88;;
63714;SDS011;49858;48.956;9.076;2023-09-30T00:24:06;2.47;;;1.58;;
63714;SDS011;49858;48.956;9.076;2023-09-30T00:26:34;5.88;;;1.77;;
63714;SDS011;49858;48.956;9.076;2023-09-30T00:29:02;5.30;;;1.73;;
63714;SDS011;49858;48.956;9.076;2023-09-30T00:31:31;4.25;;;1.85;;
63714;SDS011;49858;48.956;9.076;2023-09-30T00:33:59;3.50;;;2.30;;
63714;SDS011;49858;48.956;9.076;2023-09-30T00:36:27;5.22;;;2.47;;
63714;SDS011;49858;48.956;9.076;2023-09-30T00:38:56;7.13;;;2.47;;
63714;SDS011;49858;48.956;9.076;2023-09-30T00:41:24;2.80;;;1.73;;
63714;SDS011;49858;48.956;9.076;2023-09-30T00:43:52;3.38;;;1.90;;
63714;SDS011;49858;48.956;9.076;2023-09-30T00:46:23;4.70;;;1.80;;
63714;SDS011;49858;48.956;9.076;2023-09-30T00:48:54;1.95;;;1.17;;
63714;SDS011;49858;48.956;9.076;2023-09-30T00:51:25;2.95;;;1.95;;
63714;SDS011;49858;48.956;9.076;2023-09-30T00:53:54;4.07;;;2.13;;
63714;SDS011;49858;48.956;9.076;2023-09-30T00:56:26;2.80;;;1.85;;
63714;SDS011;49858;48.956;9.076;2023-09-30T00:58:57;2.60;;;1.35;;
63714;SDS011;49858;48.956;9.076;2023-09-30T01:01:26;6.43;;;2.38;;
63714;SDS011;49858;48.956;9.076;2023-09-30T01:03:53;2.85;;;1.80;;
63714;SDS011;49858;48.956;9.076;2023-09-30T01:06:21;2.03;;;1.42;;
63714;SDS011;49858;48.956;9.076;2023-09-30T01:08:50;6.13;;;2.28;;
63714;SDS011;49858;48.956;9.076;2023-09-30T01:11:21;3.00;;;2.30;;
63714;SDS011;49858;48.956;9.076;2023-09-30T01:13:49;7.88;;;2.80;;
63714;SDS011;49858;48.956;9.076;2023-09-30T01:16:19;9.45;;;2.97;;
63714;SDS011;49858;48.956;9.076;2023-09-30T01:18:47;4.53;;;2.67;;
63714;SDS011;49858;48.956;9.076;2023-09-30T01:21:15;7.40;;;3.08;;
63714;SDS011;49858;48.956;9.076;2023-09-30T01:23:46;5.50;;;2.67;;
63714;SDS011;49858;48.956;9.076;2023-09-30T01:26:14;4.43;;;2.60;;
63714;SDS011;49858;48.956;9.076;2023-09-30T01:28:41;6.57;;;3.05;;
63714;SDS011;49858;48.956;9.076;2023-09-30T01:31:10;5.57;;;3.38;;
63714;SDS011;49858;48.956;9.076;2023-09-30T01:33:38;4.22;;;2.42;;
63714;SDS011;49858;48.956;9.076;2023-09-30T01:36:05;4.93;;;2.42;;
63714;SDS011;49858;48.956;9.076;2023-09-30T01:38:35;5.90;;;2.95;;
63714;SDS011;49858;48.956;9.076;2023-09-30T01:41:04;6.60;;;2.40;;
63714;SDS011;49858;48.956;9.076;2023-09-30T01:43:34;6.30;;;2.70;;
63714;SDS011;49858;48.956;9.076;2023-09-30T01:46:02;4.85;;;2.60;;
63714;SDS011;49858;48.956;9.076;2023-09-30T01:48:31;10.48;;;3.20;;
63714;SDS011;49858;48.956;9.076;2023-09-30T01:50:59;5.82;;;2.97;;
63714;SDS011;49858;48.956;9.076;2023-09-30T01:53:27;6.07;;;3.20;;
63714;SDS011;49858;48.956;9.076;2023-09-30T01:55:55;11.82;;;2.65;;
63714;SDS011;49858;48.956;9.076;2023-09-30T01:58:24;5.45;;;3.00;;
63714;SDS011;49858;48.956;9.076;2023-09-30T02:00:53;4.72;;;3.00;;
63714;SDS011;49858;48.956;9.076;2023-09-30T02:03:22;5.80;;;2.53;;
63714;SDS011;49858;48.956;9.076;2023-09-30T02:05:50;7.50;;;2.78;;
63714;SDS011;49858;48.956;9.076;2023-09-30T02:08:18;5.50;;;2.88;;
63714;SDS011;49858;48.956;9.076;2023-09-30T02:10:46;4.65;;;2.55;;
63714;SDS011;49858;48.956;9.076;2023-09-30T02:13:14;6.18;;;2.78;;
63714;SDS011;49858;48.956;9.076;2023-09-30T02:15:47;5.18;;;2.22;;
63714;SDS011;49858;48.956;9.076;2023-09-30T02:18:15;5.35;;;2.60;;
63714;SDS011;49858;48.956;9.076;2023-09-30T02:20:43;6.18;;;2.83;;
63714;SDS011;49858;48.956;9.076;2023-09-30T02:23:11;11.65;;;3.92;;
63714;SDS011;49858;48.956;9.076;2023-09-30T02:25:39;10.20;;;4.40;;
63714;SDS011;49858;48.956;9.076;2023-09-30T02:28:08;7.75;;;3.67;;
63714;SDS011;49858;48.956;9.076;2023-09-30T02:30:36;5.00;;;2.72;;
63714;SDS011;49858;48.956;9.076;2023-09-30T02:33:06;5.53;;;3.08;;
63714;SDS011;49858;48.956;9.076;2023-09-30T02:35:34;6.47;;;3.45;;
63714;SDS011;49858;48.956;9.076;2023-09-30T02:38:05;6.68;;;3.10;;
63714;SDS011;49858;48.956;9.076;2023-09-30T02:40:34;9.82;;;4.25;;
63714;SDS011;49858;48.956;9.076;2023-09-30T02:43:02;9.77;;;3.85;;
63714;SDS011;49858;48.956;9.076;2023-09-30T02:45:30;9.00;;;3.28;;
63714;SDS011;49858;48.956;9.076;2023-09-30T02:47:59;8.60;;;3.35;;
63714;SDS011;49858;48.956;9.076;2023-09-30T02:50:28;6.18;;;3.75;;
63714;SDS011;49858;48.956;9.076;2023-09-30T02:52:59;6.07;;;3.22;;
63714;SDS011;49858;48.956;9.076;2023-09-30T02:55:27;5.35;;;3.47;;
63714;SDS011;49858;48.956;9.076;2023-09-30T02:57:54;9.15;;;3.47;;
63714;SDS011;49858;48.956;9.076;2023-09-30T03:00:22;7.30;;;3.30;;
63714;SDS011;49858;48.956;9.076;2023-09-30T03:02:53;7.03;;;3.30;;
63714;SDS011;49858;48.956;9.076;2023-09-30T03:05:22;7.57;;;3.65;;
63714;SDS011;49858;48.956;9.076;2023-09-30T03:07:52;6.93;;;3.50;;
63714;SDS011;49858;48.956;9.076;2023-09-30T03:10:21;6.65;;;3.33;;
63714;SDS011;49858;48.956;9.076;2023-09-30T03:12:50;7.28;;;3.20;;
63714;SDS011;49858;48.956;9.076;2023-09-30T03:15:18;6.82;;;3.30;;
63714;SDS011;49858;48.956;9.076;2023-09-30T03:17:47;9.15;;;3.25;;
63714;SDS011;49858;48.956;9.076;2023-09-30T03:20:19;7.85;;;3.60;;
63714;SDS011;49858;48.956;9.076;2023-09-30T03:22:48;8.05;;;3.45;;
63714;SDS011;49858;48.956;9.076;2023-09-30T03:25:17;6.72;;;3.10;;
63714;SDS011;49858;48.956;9.076;2023-09-30T03:27:47;8.55;;;3.97;;
63714;SDS011;49858;48.956;9.076;2023-09-30T03:30:15;5.28;;;3.05;;
63714;SDS011;49858;48.956;9.076;2023-09-30T03:32:46;11.95;;;3.33;;
63714;SDS011;49858;48.956;9.076;2023-09-30T03:35:14;7.25;;;3.53;;
63714;SDS011;49858;48.956;9.076;2023-09-30T03:37:44;9.88;;;4.53;;
63714;SDS011;49858;48.956;9.076;2023-09-30T03:40:13;5.75;;;3.35;;
63714;SDS011;49858;48.956;9.076;2023-09-30T03:42:47;5.43;;;3.28;;
63714;SDS011;49858;48.956;9.076;2023-09-30T03:45:17;8.25;;;4.00;;
63714;SDS011;49858;48.956;9.076;2023-09-30T03:47:45;6.05;;;3.17;;
63714;SDS011;49858;48.956;9.076;2023-09-30T03:50:15;6.45;;;3.03;;
63714;SDS011;49858;48.956;9.076;2023-09-30T03:52:43;5.95;;;3.10;;
63714;SDS011;49858;48.956;9.076;2023-09-30T03:55:14;9.15;;;3.53;;
63714;SDS011;49858;48.956;9.076;2023-09-30T03:57:45;6.28;;;3.22;;
63714;SDS011;49858;48.956;9.076;2023-09-30T04:00:15;9.82;;;3.90;;
63714;SDS011;49858;48.956;9.076;2023-09-30T04:02:47;10.25;;;3.88;;
63714;SDS011;49858;48.956;9.076;2023-09-30T04:05:17;7.55;;;4.07;;
63714;SDS011;49858;48.956;9.076;2023-09-30T04:07:46;5.55;;;3.13;;
63714;SDS011;49858;48.956;9.076;2023-09-30T04:10:14;7.88;;;3.22;;
63714;SDS011;49858;48.956;9.076;2023-09-30T04:12:43;7.47;;;3.83;;
63714;SDS011;49858;48.956;9.076;2023-09-30T04:15:11;9.80;;;4.40;;
63714;SDS011;49858;48.956;9.076;2023-09-30T04:17:41;7.43;;;3.60;;
63714;SDS011;49858;48.956;9.076;2023-09-30T04:20:09;7.57;;;3.25;;
63714;SDS011;49858;48.956;9.076;2023-09-30T04:22:42;5.10;;;2.90;;
63714;SDS011;49858;48.956;9.076;2023-09-30T04:25:15;9.73;;;3.58;;
63714;SDS011;49858;48.956;9.076;2023-09-30T04:27:44;6.40;;;2.92;;
63714;SDS011;49858;48.956;9.076;2023-09-30T04:30:15;10.20;;;3.65;;
63714;SDS011;49858;48.956;9.076;2023-09-30T04:32:44;10.38;;;3.88;;
63714;SDS011;49858;48.956;9.076;2023-09-30T04:35:12;7.85;;;3.53;;
63714;SDS011;49858;48.956;9.076;2023-09-30T04:37:41;8.48;;;3.28;;
63714;SDS011;49858;48.956;9.076;2023-09-30T04:40:10;9.82;;;4.10;;
63714;SDS011;49858;48.956;9.076;2023-09-30T04:42:42;6.97;;;3.83;;
63714;SDS011;49858;48.956;9.076;2023-09-30T04:45:11;10.23;;;4.47;;
63714;SDS011;49858;48.956;9.076;2023-09-30T04:47:39;9.40;;;4.38;;
63714;SDS011;49858;48.956;9.076;2023-09-30T04:50:09;8.80;;;4.28;;
63714;SDS011;49858;48.956;9.076;2023-09-30T04:52:38;6.60;;;3.92;;
63714;SDS011;49858;48.956;9.076;2023-09-30T04:55:07;8.63;;;4.72;;
63714;SDS011;49858;48.956;9.076;2023-09-30T04:57:35;8.05;;;3.88;;
63714;SDS011;49858;48.956;9.076;2023-09-30T05:00:03;7.70;;;4.28;;
63714;SDS011;49858;48.956;9.076;2023-09-30T05:02:38;9.40;;;4.15;;
63714;SDS011;49858;48.956;9.076;2023-09-30T05:05:07;9.02;;;4.25;;
63714;SDS011;49858;48.956;9.076;2023-09-30T05:07:37;11.60;;;4.43;;
63714;SDS011;49858;48.956;9.076;2023-09-30T05:10:05;7.15;;;3.67;;
63714;SDS011;49858;48.956;9.076;2023-09-30T05:12:37;8.95;;;3.35;;
63714;SDS011;49858;48.956;9.076;2023-09-30T05:15:05;6.68;;;3.42;;
63714;SDS011;49858;48.956;9.076;2023-09-30T05:17:33;9.70;;;4.15;;
63714;SDS011;49858;48.956;9.076;2023-09-30T05:20:03;6.45;;;2.95;;
63714;SDS011;49858;48.956;9.076;2023-09-30T05:22:36;9.05;;;3.55;;
63714;SDS011;49858;48.956;9.076;2023-09-30T05:25:05;9.75;;;4.10;;
63714;SDS011;49858;48.956;9.076;2023-09-30T05:27:34;6.80;;;4.15;;
63714;SDS011;49858;48.956;9.076;2023-09-30T05:30:02;9.20;;;4.75;;
63714;SDS011;49858;48.956;9.076;2023-09-30T05:32:30;10.90;;;4.28;;
63714;SDS011;49858;48.956;9.076;2023-09-30T05:34:59;7.78;;;3.78;;
63714;SDS011;49858;48.956;9.076;2023-09-30T05:37:29;6.22;;;3.58;;
63714;SDS011;49858;48.956;9.076;2023-09-30T05:39:58;8.75;;;3.65;;
63714;SDS011;49858;48.956;9.076;2023-09-30T05:42:27;6.70;;;3.58;;
63714;SDS011;49858;48.956;9.076;2023-09-30T05:44:55;8.32;;;4.32;;
63714;SDS011;49858;48.956;9.076;2023-09-30T05:47:25;10.38;;;4.53;;
63714;SDS011;49858;48.956;9.076;2023-09-30T05:49:52;9.40;;;5.38;;
63714;SDS011;49858;48.956;9.076;2023-09-30T05:52:21;8.55;;;4.13;;
63714;SDS011;49858;48.956;9.076;2023-09-30T05:54:49;9.75;;;3.92;;
63714;SDS011;49858;48.956;9.076;2023-09-30T05:57:18;7.28;;;3.83;;
63714;SDS011;49858;48.956;9.076;2023-09-30T05:59:46;8.60;;;3.70;;
63714;SDS011;49858;48.956;9.076;2023-09-30T06:02:15;6.80;;;3.92;;
63714;SDS011;49858;48.956;9.076;2023-09-30T06:04:42;11.07;;;4.95;;
63714;SDS011;49858;48.956;9.076;2023-09-30T06:07:12;7.85;;;4.10;;
63714;SDS011;49858;48.956;9.076;2023-09-30T06:09:40;6.00;;;3.40;;
63714;SDS011;49858;48.956;9.076;2023-09-30T06:12:09;8.38;;;3.78;;
63714;SDS011;49858;48.956;9.076;2023-09-30T06:14:39;6.47;;;4.35;;
63714;SDS011;49858;48.956;9.076;2023-09-30T06:17:07;12.80;;;5.15;;
63714;SDS011;49858;48.956;9.076;2023-09-30T06:19:35;6.85;;;3.85;;
63714;SDS011;49858;48.956;9.076;2023-09-30T06:22:04;8.15;;;3.67;;
63714;SDS011;49858;48.956;9.076;2023-09-30T06:24:32;6.75;;;3.88;;
63714;SDS011;49858;48.956;9.076;2023-09-30T06:26:59;7.72;;;3.65;;
63714;SDS011;49858;48.956;9.076;2023-09-30T06:29:27;6.00;;;3.55;;
63714;SDS011;49858;48.956;9.076;2023-09-30T06:31:57;8.13;;;3.47;;
63714;SDS011;49858;48.956;9.076;2023-09-30T06:34:24;7.65;;;4.20;;
63714;SDS011;49858;48.956;9.076;2023-09-30T06:36:52;7.47;;;3.88;;
63714;SDS011;49858;48.956;9.076;2023-09-30T06:39:20;6.07;;;3.60;;
63714;SDS011;49858;48.956;9.076;2023-09-30T06:41:48;7.30;;;3.97;;
63714;SDS011;49858;48.956;9.076;2023-09-30T06:44:17;7.38;;;3.47;;
63714;SDS011;49858;48.956;9.076;2023-09-30T06:46:44;7.68;;;4.32;;
63714;SDS011;49858;48.956;9.076;2023-09-30T06:49:14;11.70;;;4.40;;
63714;SDS011;49858;48.956;9.076;2023-09-30T06:51:41;6.95;;;4.22;;
63714;SDS011;49858;48.956;9.076;2023-09-30T06:54:09;6.45;;;3.80;;
63714;SDS011;49858;48.956;9.076;2023-09-30T06:56:38;11.00;;;4.70;;
63714;SDS011;49858;48.956;9.076;2023-09-30T06:59:07;10.38;;;4.28;;
63714;SDS011;49858;48.956;9.076;2023-09-30T07:01:35;11.35;;;4.55;;
63714;SDS011;49858;48.956;9.076;2023-09-30T07:04:03;7.25;;;4.10;;
63714;SDS011;49858;48.956;9.076;2023-09-30T07:06:34;9.57;;;4.63;;
63714;SDS011;49858;48.956;9.076;2023-09-30T07:09:02;9.48;;;4.10;;
63714;SDS011;49858;48.956;9.076;2023-09-30T07:11:30;8.13;;;4.75;;
63714;SDS011;49858;48.956;9.076;2023-09-30T07:13:59;11.50;;;4.80;;
63714;SDS011;49858;48.956;9.076;2023-09-30T07:16:27;10.38;;;4.20;;
63714;SDS011;49858;48.956;9.076;2023-09-30T07:18:55;9.95;;;4.90;;
63714;SDS011;49858;48.956;9.076;2023-09-30T07:21:24;12.88;;;4.75;;
63714;SDS011;49858;48.956;9.076;2023-09-30T07:23:53;7.32;;;4.30;;
63714;SDS011;49858;48.956;9.076;2023-09-30T07:26:23;9.77;;;4.97;;
63714;SDS011;49858;48.956;9.076;2023-09-30T07:28:51;7.63;;;4.68;;
63714;SDS011;49858;48.956;9.076;2023-09-30T07:31:21;9.40;;;4.78;;
63714;SDS011;49858;48.956;9.076;2023-09-30T07:33:50;10.02;;;4.50;;
63714;SDS011;49858;48.956;9.076;2023-09-30T07:36:17;8.75;;;4.60;;
63714;SDS011;49858;48.956;9.076;2023-09-30T07:38:45;10.65;;;4.40;;
63714;SDS011;49858;48.956;9.076;2023-09-30T07:41:15;9.68;;;4.82;;
63714;SDS011;49858;48.956;9.076;2023-09-30T07:43:44;9.25;;;4.18;;
63714;SDS011;49858;48.956;9.076;2023-09-30T07:46:12;7.97;;;3.83;;
63714;SDS011;49858;48.956;9.076;2023-09-30T07:48:42;9.77;;;4.57;;
63714;SDS011;49858;48.956;9.076;2023-09-30T07:51:10;7.65;;;4.40;;
63714;SDS011;49858;48.956;9.076;2023-09-30T07:53:39;8.50;;;4.25;;
63714;SDS011;49858;48.956;9.076;2023-09-30T07:56:08;6.95;;;3.88;;
63714;SDS011;49858;48.956;9.076;2023-09-30T07:58:37;9.35;;;4.15;;
63714;SDS011;49858;48.956;9.076;2023-09-30T08:01:05;6.13;;;3.80;;
63714;SDS011;49858;48.956;9.076;2023-09-30T08:03:35;7.40;;;4.00;;
63714;SDS011;49858;48.956;9.076;2023-09-30T08:06:03;6.47;;;3.42;;
63714;SDS011;49858;48.956;9.076;2023-09-30T08:08:31;7.32;;;4.03;;
63714;SDS011;49858;48.956;9.076;2023-09-30T08:10:59;9.82;;;3.92;;
63714;SDS011;49858;48.956;9.076;2023-09-30T08:13:27;5.70;;;3.53;;
63714;SDS011;49858;48.956;9.076;2023-09-30T08:15:57;7.85;;;5.15;;
63714;SDS011;49858;48.956;9.076;2023-09-30T08:18:25;7.82;;;3.60;;
63714;SDS011;49858;48.956;9.076;2023-09-30T08:20:53;5.20;;;3.22;;
63714;SDS011;49858;48.956;9.076;2023-09-30T08:23:21;9.10;;;3.45;;
63714;SDS011;49858;48.956;9.076;2023-09-30T08:25:49;7.40;;;3.90;;
63714;SDS011;49858;48.956;9.076;2023-09-30T08:28:17;8.13;;;3.97;;
63714;SDS011;49858;48.956;9.076;2023-09-30T08:30:45;9.77;;;3.45;;
63714;SDS011;49858;48.956;9.076;2023-09-30T08:33:14;6.28;;;2.95;;
63714;SDS011;49858;48.956;9.076;2023-09-30T08:35:42;7.20;;;3.03;;
63714;SDS011;49858;48.956;9.076;2023-09-30T08:38:10;4.30;;;2.80;;
63714;SDS011;49858;48.956;9.076;2023-09-30T08:40:38;5.57;;;2.92;;
63714;SDS011;49858;48.956;9.076;2023-09-30T08:43:06;5.47;;;2.47;;
63714;SDS011;49858;48.956;9.076;2023-09-30T08:45:39;8.50;;;2.70;;
63714;SDS011;49858;48.956;9.076;2023-09-30T08:48:11;8.30;;;3.58;;
63714;SDS011;49858;48.956;9.076;2023-09-30T08:50:40;6.68;;;2.65;;
63714;SDS011;49858;48.956;9.076;2023-09-30T08:53:09;6.45;;;3.08;;
63714;SDS011;49858;48.956;9.076;2023-09-30T08:55:38;7.10;;;3.00;;
63714;SDS011;49858;48.956;9.076;2023-09-30T08:58:09;6.82;;;3.03;;
63714;SDS011;49858;48.956;9.076;2023-09-30T09:00:37;10.15;;;3.25;;
63714;SDS011;49858;48.956;9.076;2023-09-30T09:03:06;6.63;;;2.67;;
63714;SDS011;49858;48.956;9.076;2023-09-30T09:05:35;5.38;;;2.85;;
63714;SDS011;49858;48.956;9.076;2023-09-30T09:08:04;4.38;;;2.20;;
63714;SDS011;49858;48.956;9.076;2023-09-30T09:10:32;7.60;;;3.78;;
63714;SDS011;49858;48.956;9.076;2023-09-30T09:13:00;6.65;;;2.50;;
63714;SDS011;49858;48.956;9.076;2023-09-30T09:15:28;4.18;;;2.30;;
63714;SDS011;49858;48.956;9.076;2023-09-30T09:17:57;7.30;;;3.35;;
63714;SDS011;49858;48.956;9.076;2023-09-30T09:20:25;7.60;;;3.33;;
63714;SDS011;49858;48.956;9.076;2023-09-30T09:22:55;9.73;;;3.53;;
63714;SDS011;49858;48.956;9.076;2023-09-30T09:25:28;8.20;;;3.20;;
63714;SDS011;49858;48.956;9.076;2023-09-30T09:27:55;6.45;;;3.03;;
63714;SDS011;49858;48.956;9.076;2023-09-30T09:30:24;5.97;;;3.38;;
63714;SDS011;49858;48.956;9.076;2023-09-30T09:32:53;8.40;;;4.15;;
63714;SDS011;49858;48.956;9.076;2023-09-30T09:35:24;7.82;;;3.38;;
63714;SDS011;49858;48.956;9.076;2023-09-30T09:37:57;6.78;;;3.22;;
63714;SDS011;49858;48.956;9.076;2023-09-30T09:40:27;5.75;;;3.42;;
63714;SDS011;49858;48.956;9.076;2023-09-30T09:42:57;5.50;;;3.03;;
63714;SDS011;49858;48.956;9.076;2023-09-30T09:45:27;7.60;;;3.33;;
63714;SDS011;49858;48.956;9.076;2023-09-30T09:47:59;7.65;;;2.92;;
63714;SDS011;49858;48.956;9.076;2023-09-30T09:50:27;9.13;;;3.97;;
63714;SDS011;49858;48.956;9.076;2023-09-30T09:52:55;4.18;;;2.78;;
63714;SDS011;49858;48.956;9.076;2023-09-30T09:55:26;6.93;;;2.80;;
63714;SDS011;49858;48.956;9.076;2023-09-30T09:57:55;7.50;;;3.08;;
63714;SDS011;49858;48.956;9.076;2023-09-30T10:00:25;4.70;;;3.10;;
63714;SDS011;49858;48.956;9.076;2023-09-30T10:02:56;5.20;;;3.25;;
63714;SDS011;49858;48.956;9.076;2023-09-30T10:05:25;5.30;;;2.55;;
63714;SDS011;49858;48.956;9.076;2023-09-30T10:07:55;8.68;;;3.50;;
63714;SDS011;49858;48.956;9.076;2023-09-30T10:10:29;6.43;;;2.83;;
63714;SDS011;49858;48.956;9.076;2023-09-30T10:13:02;5.10;;;2.45;;
63714;SDS011;49858;48.956;9.076;2023-09-30T10:15:37;5.13;;;2.58;;
63714;SDS011;49858;48.956;9.076;2023-09-30T10:18:08;5.88;;;2.47;;
63714;SDS011;49858;48.956;9.076;2023-09-30T10:20:41;6.25;;;2.67;;
63714;SDS011;49858;48.956;9.076;2023-09-30T10:23:24;5.32;;;2.58;;
63714;SDS011;49858;48.956;9.076;2023-09-30T10:26:13;5.43;;;2.53;;
63714;SDS011;49858;48.956;9.076;2023-09-30T10:28:44;5.25;;;2.55;;
63714;SDS011;49858;48.956;9.076;2023-09-30T10:31:15;7.47;;;3.10;;
63714;SDS011;49858;48.956;9.076;2023-09-30T10:36:46;3.53;;;2.08;;
63714;SDS011;49858;48.956;9.076;2023-09-30T10:39:52;9.77;;;2.38;;
63714;SDS011;49858;48.956;9.076;2023-09-30T10:51:15;7.20;;;3.00;;
63714;SDS011;49858;48.956;9.076;2023-09-30T10:53:48;5.05;;;2.45;;
63714;SDS011;49858;48.956;9.076;2023-09-30T10:56:18;6.47;;;2.47;;
63714;SDS011;49858;48.956;9.076;2023-09-30T10:58:50;6.63;;;2.35;;
63714;SDS011;49858;48.956;9.076;2023-09-30T11:01:19;5.47;;;2.30;;
63714;SDS011;49858;48.956;9.076;2023-09-30T11:03:49;5.90;;;2.30;;
63714;SDS011;49858;48.956;9.076;2023-09-30T11:06:19;5.57;;;2.13;;
63714;SDS011;49858;48.956;9.076;2023-09-30T11:08:50;6.40;;;2.28;;
63714;SDS011;49858;48.956;9.076;2023-09-30T11:11:31;6.82;;;2.42;;
63714;SDS011;49858;48.956;9.076;2023-09-30T11:14:02;5.25;;;2.15;;
63714;SDS011;49858;48.956;9.076;2023-09-30T11:16:40;5.22;;;1.77;;
63714;SDS011;49858;48.956;9.076;2023-09-30T11:19:10;7.40;;;2.80;;
63714;SDS011;49858;48.956;9.076;2023-09-30T11:21:40;6.95;;;3.50;;
63714;SDS011;49858;48.956;9.076;2023-09-30T11:24:10;6.90;;;2.75;;
63714;SDS011;49858;48.956;9.076;2023-09-30T11:26:38;6.20;;;2.90;;
63714;SDS011;49858;48.956;9.076;2023-09-30T11:29:09;6.72;;;2.45;;
63714;SDS011;49858;48.956;9.076;2023-09-30T11:31:39;5.43;;;2.40;;
63714;SDS011;49858;48.956;9.076;2023-09-30T11:34:09;6.75;;;2.80;;
63714;SDS011;49858;48.956;9.076;2023-09-30T11:36:38;6.78;;;3.00;;
63714;SDS011;49858;48.956;9.076;2023-09-30T11:39:09;6.78;;;2.90;;
63714;SDS011;49858;48.956;9.076;2023-09-30T11:41:37;9.13;;;3.03;;
63714;SDS011;49858;48.956;9.076;2023-09-30T11:44:06;7.63;;;2.95;;
63714;SDS011;49858;48.956;9.076;2023-09-30T11:46:51;7.90;;;3.10;;
63714;SDS011;49858;48.956;9.076;2023-09-30T11:49:24;5.50;;;2.72;;
63714;SDS011;49858;48.956;9.076;2023-09-30T11:51:56;6.10;;;3.13;;
63714;SDS011;49858;48.956;9.076;2023-09-30T11:54:32;5.43;;;2.78;;
63714;SDS011;49858;48.956;9.076;2023-09-30T11:57:03;8.57;;;2.92;;
63714;SDS011;49858;48.956;9.076;2023-09-30T11:59:31;6.28;;;2.55;;
63714;SDS011;49858;48.956;9.076;2023-09-30T12:02:00;8.68;;;2.97;;
63714;SDS011;49858;48.956;9.076;2023-09-30T12:04:40;7.25;;;2.83;;
63714;SDS011;49858;48.956;9.076;2023-09-30T12:07:09;6.00;;;2.60;;
63714;SDS011;49858;48.956;9.076;2023-09-30T12:09:38;6.38;;;2.80;;
63714;SDS011;49858;48.956;9.076;2023-09-30T12:12:07;6.50;;;2.60;;
63714;SDS011;49858;48.956;9.076;2023-09-30T12:14:37;8.52;;;3.20;;
63714;SDS011;49858;48.956;9.076;2023-09-30T12:17:06;6.68;;;3.50;;
63714;SDS011;49858;48.956;9.076;2023-09-30T12:19:38;7.38;;;3.15;;
63714;SDS011;49858;48.956;9.076;2023-09-30T12:22:08;6.78;;;3.25;;
63714;SDS011;49858;48.956;9.076;2023-09-30T12:24:37;8.85;;;3.35;;
63714;SDS011;49858;48.956;9.076;2023-09-30T12:27:06;7.60;;;3.53;;
63714;SDS011;49858;48.956;9.076;2023-09-30T12:29:34;9.52;;;3.00;;
63714;SDS011;49858;48.956;9.076;2023-09-30T12:32:04;8.25;;;3.03;;
63714;SDS011;49858;48.956;9.076;2023-09-30T12:34:34;8.35;;;2.83;;
63714;SDS011;49858;48.956;9.076;2023-09-30T12:37:02;7.00;;;2.67;;
63714;SDS011;49858;48.956;9.076;2023-09-30T12:39:30;6.60;;;3.17;;
63714;SDS011;49858;48.956;9.076;2023-09-30T12:42:03;6.28;;;2.70;;
63714;SDS011;49858;48.956;9.076;2023-09-30T12:44:35;7.55;;;3.60;;
63714;SDS011;49858;48.956;9.076;2023-09-30T12:47:03;7.35;;;2.97;;
63714;SDS011;49858;48.956;9.076;2023-09-30T12:49:35;7.85;;;3.13;;
63714;SDS011;49858;48.956;9.076;2023-09-30T12:52:03;8.63;;;3.53;;
63714;SDS011;49858;48.956;9.076;2023-09-30T12:54:31;7.10;;;3.42;;
63714;SDS011;49858;48.956;9.076;2023-09-30T12:57:00;7.32;;;2.88;;
63714;SDS011;49858;48.956;9.076;2023-09-30T12:59:28;8.18;;;2.90;;
63714;SDS011;49858;48.956;9.076;2023-09-30T13:01:56;5.70;;;2.35;;
63714;SDS011;49858;48.956;9.076;2023-09-30T13:04:24;7.03;;;2.60;;
63714;SDS011;49858;48.956;9.076;2023-09-30T13:06:54;5.97;;;2.67;;
63714;SDS011;49858;48.956;9.076;2023-09-30T13:09:22;5.00;;;2.75;;
63714;SDS011;49858;48.956;9.076;2023-09-30T13:11:50;6.40;;;2.90;;
63714;SDS011;49858;48.956;9.076;2023-09-30T13:14:17;7.25;;;2.83;;
63714;SDS011;49858;48.956;9.076;2023-09-30T13:16:45;5.93;;;2.65;;
63714;SDS011;49858;48.956;9.076;2023-09-30T13:19:13;6.45;;;2.80;;
63714;SDS011;49858;48.956;9.076;2023-09-30T13:21:42;8.35;;;2.80;;
63714;SDS011;49858;48.956;9.076;2023-09-30T13:24:11;6.50;;;2.80;;
63714;SDS011;49858;48.956;9.076;2023-09-30T13:26:40;7.22;;;2.70;;
63714;SDS011;49858;48.956;9.076;2023-09-30T13:29:08;8.50;;;2.72;;
63714;SDS011;49858;48.956;9.076;2023-09-30T13:31:38;7.22;;;3.22;;
63714;SDS011;49858;48.956;9.076;2023-09-30T13:34:06;7.40;;;2.67;;
63714;SDS011;49858;48.956;9.076;2023-09-30T13:36:34;8.38;;;3.67;;
63714;SDS011;49858;48.956;9.076;2023-09-30T13:39:02;7.63;;;2.90;;
63714;SDS011;49858;48.956;9.076;2023-09-30T13:41:34;7.85;;;2.97;;
63714;SDS011;49858;48.956;9.076;2023-09-30T13:44:03;6.68;;;3.13;;
63714;SDS011;49858;48.956;9.076;2023-09-30T13:46:31;6.40;;;2.80;;
63714;SDS011;49858;48.956;9.076;2023-09-30T13:48:59;7.80;;;3.20;;
63714;SDS011;49858;48.956;9.076;2023-09-30T13:51:27;7.53;;;2.83;;
63714;SDS011;49858;48.956;9.076;2023-09-30T13:53:55;6.53;;;2.83;;
63714;SDS011;49858;48.956;9.076;2023-09-30T13:56:25;7.20;;;3.00;;
63714;SDS011;49858;48.956;9.076;2023-09-30T13:58:55;9.32;;;3.13;;
63714;SDS011;49858;48.956;9.076;2023-09-30T14:01:24;6.05;;;3.00;;
63714;SDS011;49858;48.956;9.076;2023-09-30T14:03:53;7.18;;;2.97;;
63714;SDS011;49858;48.956;9.076;2023-09-30T14:06:23;11.32;;;3.08;;
63714;SDS011;49858;48.956;9.076;2023-09-30T14:08:52;7.65;;;3.30;;
63714;SDS011;49858;48.956;9.076;2023-09-30T14:11:20;8.95;;;3.80;;
63714;SDS011;49858;48.956;9.076;2023-09-30T14:13:48;6.65;;;2.95;;
63714;SDS011;49858;48.956;9.076;2023-09-30T14:16:17;8.57;;;3.42;;
63714;SDS011;49858;48.956;9.076;2023-09-30T14:18:45;8.18;;;3.10;;
63714;SDS011;49858;48.956;9.076;2023-09-30T14:21:16;8.05;;;3.05;;
63714;SDS011;49858;48.956;9.076;2023-09-30T14:23:45;5.93;;;2.85;;
63714;SDS011;49858;48.956;9.076;2023-09-30T14:26:12;9.98;;;3.00;;
63714;SDS011;49858;48.956;9.076;2023-09-30T14:28:40;8.77;;;3.50;;
63714;SDS011;49858;48.956;9.076;2023-09-30T14:31:08;8.20;;;3.05;;
63714;SDS011;49858;48.956;9.076;2023-09-30T14:33:37;10.40;;;2.85;;
63714;SDS011;49858;48.956;9.076;2023-09-30T14:36:07;7.68;;;3.45;;
63714;SDS011;49858;48.956;9.076;2023-09-30T14:38:35;10.38;;;3.40;;
63714;SDS011;49858;48.956;9.076;2023-09-30T14:41:06;8.70;;;2.97;;
63714;SDS011;49858;48.956;9.076;2023-09-30T14:43:34;8.40;;;3.40;;
63714;SDS011;49858;48.956;9.076;2023-09-30T14:46:02;21.15;;;6.03;;
63714;SDS011;49858;48.956;9.076;2023-09-30T14:48:31;9.10;;;7.15;;
63714;SDS011;49858;48.956;9.076;2023-09-30T14:51:00;14.23;;;10.70;;
63714;SDS011;49858;48.956;9.076;2023-09-30T14:53:31;19.65;;;14.90;;
63714;SDS011;49858;48.956;9.076;2023-09-30T14:55:58;9.93;;;5.60;;
63714;SDS011;49858;48.956;9.076;2023-09-30T14:58:27;10.35;;;3.65;;
63714;SDS011;49858;48.956;9.076;2023-09-30T15:00:55;7.20;;;3.60;;
63714;SDS011;49858;48.956;9.076;2023-09-30T15:03:23;7.25;;;3.22;;
63714;SDS011;49858;48.956;9.076;2023-09-30T15:05:57;8.57;;;3.30;;
63714;SDS011;49858;48.956;9.076;2023-09-30T15:08:27;8.57;;;3.45;;
63714;SDS011;49858;48.956;9.076;2023-09-30T15:10:55;24.77;;;18.73;;